METAR Data
IDs: Format: Raw Decoded Include TAF

Data at: 1426 UTC 12 Dec 2018

PADU 121356Z AUTO 23012G20KT 10SM BKN050 00/M08 A2962 RMK AO2 SLP035 T00001083 FZRANO
PADU 121256Z AUTO 24004KT 10SM FEW038 M02/M06 A2962 RMK AO2 UPB22E53SNB31E44 SLP035 P0000 T10171056 FZRANO
PADU 121156Z AUTO 29008KT 10SM FEW050 BKN065 00/M07 A2960 RMK AO2 RAB1058E07UPB07E22B38E48 SLP027 P0000 60000 7//// T00001072 10006 21011 51016 FZRANO
PADU 121056Z AUTO 29014G17KT 10SM SCT046 BKN065 00/M06 A2959 RMK AO2 PK WND 28027/1000 UPB12E16RAB16E24 SLP026 P0000 T00001061 FZRANO
PADU 120956Z AUTO 30017G24KT 10SM FEW045 00/M07 A2957 RMK AO2 PK WND 31026/0857 UPB02E13 SLP018 P0000 T00001072 FZRANO
PADU 120856Z AUTO 30017G25KT 10SM BKN043 00/M07 A2955 RMK AO2 PK WND 32033/0841 UPE0758SNB00E19 SLP011 P0000 60000 T00001067 400171050 51023 FZRANO
PADU 120756Z AUTO 31021KT 10SM UP SCT031 SCT040 BKN050 M01/M06 A2952 RMK AO2 UPE0657B21E25B50SNB12E21B25E50 SLP002 P0000 T10061056 FZRANO
PADU 120656Z AUTO 30015G23KT 10SM UP SCT037 BKN050 BKN065 M01/M06 A2951 RMK AO2 PK WND 31032/0635 SLP998 P0000 T10111061 FZRANO
PADU 120556Z AUTO 32019G25KT 8SM UP SCT025 BKN030 OVC037 M01/M04 A2948 RMK AO2 PK WND 32030/0541 UPB09E15B54SNE09B15E54 SLP988 6//// T10061044 10006 21028 53024 FZRANO
PADU 120506Z AUTO 31010KT 6SM -SN BR FEW009 BKN038 OVC060 M02/M03 A2946 RMK AO2 FZRANO PNO $
PADU 120456Z AUTO 31009KT 9SM -SN SCT005 SCT016 BKN026 M03/M04 A2946 RMK AO2 PK WND 32038/0419 UPB17E22SNE17B22 SLP979 T10281039 FZRANO PNO $
PADU 120453Z AUTO 33008KT 6SM -SN BR SCT003 BKN010 BKN026 M03/M04 A2946 RMK AO2 PK WND 32038/0419 UPB17E22SNE17B22 CIG 008V014 FZRANO PNO $
PADU 120447Z AUTO 35010G21KT 2SM -SN BR SCT003 BKN009 OVC027 M03/M04 A2946 RMK AO2 PK WND 32038/0419 VIS 3/4V5 UPB17E22SNE17B22 CIG 005V015 FZRANO PNO $
PADU 120441Z AUTO 34016G21KT 1SM -SN BR SCT003 BKN007 OVC029 M03/M04 A2946 RMK AO2 PK WND 32038/0419 UPB17E22SNE17B22 CIG 005V009 FZRANO PNO $
PADU 120439Z AUTO 34013KT 3/4SM -SN BR BKN005 BKN029 OVC047 M02/M03 A2946 RMK AO2 PK WND 32038/0419 UPB17E22SNE17B22 CIG 003V009 FZRANO PNO $
PADU 120430Z AUTO 31024G32KT 1/2SM SN FZFG BKN003 BKN029 BKN055 M02/M03 A2946 RMK AO2 PK WND 32038/0419 UPB17E22SNE17B22 FZRANO PNO $
PADU 120424Z AUTO 30019G38KT 3/4SM -SN FEW003 SCT016 BKN028 M01/M04 A2945 RMK AO2 PK WND 32038/0419 UPB17E22SNE17B22 FZRANO PNO $
PADU 120422Z AUTO 29020G38KT 1 1/4SM -SN FEW010 BKN028 BKN048 M01/M04 A2945 RMK AO2 PK WND 32038/0419 UPB17E22SNE17B22 CIG 022V035 FZRANO PNO $
PADU 120356Z 27017KT 6SM -SN SCT024 BKN042 OVC070 M01/M04 A2944 RMK AO2 PK WND 31030/0343 SLP973 T10111039 PNO $
PADU 120256Z 28008G19KT 7SM -SN BKN038 BKN047 OVC065 M01/M04 A2941 RMK AO2 UPB54E55SNE25B46E54B55 SLP964 6//// T10061039 53004 PNO $
PADU 120252Z 26008G19KT 6SM -SN BKN038 BKN047 BKN065 M01/M04 A2941 RMK AO2 SNE25B46 PNO $
PADU 120221Z 25009KT 5SM -SN BR SCT011 BKN025 OVC060 M02/M03 A2941 RMK AO2 CIG 020V035 PNO $
PADU 120214Z 30011KT 1SM -SN BR FEW007 BKN011 OVC027 M02/M04 A2941 RMK AO2 PNO $
PADU 120210Z 29012G24KT 1/2SM -SN FZFG SCT007 BKN013 OVC043 M02/M03 A2941 RMK AO2 PNO $
PADU 120205Z 30019G24KT 3/4SM -SN BR SCT007 BKN016 OVC043 M02/M03 A2941 RMK AO2 PNO $
PADU 120203Z 29022KT 1 1/4SM -SN BR SCT007 BKN016 OVC038 M01/M03 A2941 RMK AO2 PNO $
PADU 120156Z 29009KT 3SM -SN BR SCT009 BKN018 OVC050 M02/M03 A2940 RMK AO2 SNB38 SLP961 T10171028 PNO $
PADU 120152Z 29009G19KT 1 1/2SM -SN BR SCT009 BKN015 OVC050 M02/M03 A2940 RMK AO2 SNB38 PNO $
PADU 120144Z 28014G23KT 1 1/2SM -SN BR FEW012 BKN032 OVC050 M01/M03 A2940 RMK AO2 SNB38 PNO $
PADU 120056Z 00000KT 10SM FEW028 FEW042 M02/M06 A2939 RMK AO2 SNE15 SLP956 T10171056 PNO $
PADU 120011Z 00000KT 9SM -SN FEW006 SCT028 SCT042 M01/M06 A2941 RMK AO2 PNO $
PADU 112356Z 26003KT 8SM -SN FEW006 BKN028 OVC060 M02/M04 A2941 RMK AO2 SNB40 SLP964 6//// T10171044 10017 21050 58009 PNO $
PADU 112351Z 28004KT 8SM -SN SCT010 BKN028 OVC060 M02/M04 A2941 RMK AO2 SNB40 VIS NE 1 E 1 1/2 PNO $
PADU 112348Z 27006KT 3/4SM -SN BKN010 BKN028 OVC095 M02/M04 A2942 RMK AO2 SNB40 CIG 005V021 PNO $
PADU 112345Z 27009G17KT 1 1/4SM -SN SCT010 BKN028 OVC095 M01/M05 A2942 RMK AO2 SNB40 PNO $
PADU 112341Z 26009G17KT 3SM -SN FEW015 BKN045 OVC095 M01/M05 A2942 RMK AO2 SNB40 VIS NE 4 E 4 PNO $
PADU 112256Z 21010KT 10SM FEW035 FEW060 01/M06 A2942 RMK AO2 SLP968 T00061056 PNO $
PADU 112156Z 17005KT 10SM FEW033 01/M06 A2943 RMK AO2 UPB10E15 SLP972 T00061056 PNO $
PADU 112056Z 00000KT 10SM SCT019 BKN035 OVC047 M01/M04 A2944 RMK AO2 SLP974 6//// T10111039 56010 PNO $
PADU 111956Z 25009KT 10SM FEW037 BKN075 M01/M05 A2944 RMK AO2 SLP974 VCSH SW T10111050 PNO $
PADU 111856Z 06003KT 10SM FEW024 M04/M09 A2945 RMK AO2 SLP979 T10391089 PNO $
PADU 111756Z 00000KT 10SM CLR M03/M09 A2947 RMK AO2 SLP983 6//// T10331089 11011 21044 56007 PNO $
PADU 111656Z 17004KT 10SM CLR M03/M07 A2948 RMK AO2 SLP986 T10281072 PNO $
PADU 111556Z 16005KT 10SM SCT020 M04/M07 A2948 RMK AO2 SLP988 T10391072 PNO $
PADU 111456Z AUTO 32010KT 9SM FEW008 SCT019 BKN055 M02/M04 A2949 RMK AO2 SNB25E54 SLP991 6//// T10221039 58005 FZRANO PNO $
PADU 111446Z AUTO 30008KT 8SM -SN FEW006 BKN036 OVC055 M02/M04 A2950 RMK AO2 SNB25 FZRANO PNO $
PADU 111439Z AUTO 27010KT 2SM -SN BR FEW006 BKN024 OVC046 M02/M04 A2950 RMK AO2 SNB25 FZRANO PNO $
PADU 111435Z AUTO 28015KT 1SM -SN BR FEW004 BKN020 OVC046 M02/M04 A2950 RMK AO2 SNB25 FZRANO PNO $
PADU 111433Z AUTO 29016G25KT 3/4SM -SN SCT006 BKN038 OVC046 M01/M04 A2950 RMK AO2 SNB25 FZRANO PNO $
PADU 111427Z AUTO 28020G25KT 1 3/4SM -SN FEW004 BKN044 OVC050 M01/M05 A2950 RMK AO2 SNB25 FZRANO PNO $
PADU 111356Z AUTO VRB06KT 10SM FEW046 M02/M07 A2950 RMK AO2 UPB12E15SNE12 SLP994 T10171067 FZRANO PNO $
PADU 111256Z AUTO 30006KT 9SM -SN FEW015 BKN036 OVC048 M01/M06 A2951 RMK AO2 SNB51 SLP997 T10111056 FZRANO PNO $
PADU 111156Z AUTO 28014KT 10SM SCT041 BKN070 OVC090 M02/M04 A2951 RMK AO2 UPB10E25SNE10 SLP996 6//// 7//// T10171044 11006 21028 50016 FZRANO PNO $
PADU 111117Z AUTO 25004KT 10SM UP FEW011 SCT040 SCT047 M02/M04 A2951 RMK AO2 UPB10SNE10 FZRANO PNO $
PADU 111056Z AUTO 26008KT 8SM -SN SCT009 BKN016 OVC047 M02/M04 A2951 RMK AO2 PK WND 28027/1026 UPB00E34SNE00B34 CIG 013V025 SLP997 T10171039 FZRANO PNO $
PADU 111047Z AUTO 26010KT 2SM -SN BR SCT009 BKN016 OVC070 M02/M03 A2951 RMK AO2 PK WND 28027/1026 UPB00E34SNE00B34 CIG 013V025 FZRANO PNO $
PADU 111038Z AUTO 28016G22KT 1 3/4SM -SN SCT012 BKN033 OVC075 M01/M04 A2951 RMK AO2 PK WND 28027/1026 UPB00E34SNE00B34 FZRANO PNO $
PADU 110956Z AUTO 31017G21KT 9SM -SN FEW018 SCT030 OVC038 M01/M04 A2948 RMK AO2 SNE06B32 SLP987 T10061039 FZRANO PNO $
PADU 110907Z AUTO 28013KT 9SM FEW027 BKN047 M01/M03 A2946 RMK AO2 SNE06 FZRANO PNO $
PADU 110856Z AUTO 23011KT 220V290 9SM -SN FEW012 BKN028 OVC043 M01/M03 A2946 RMK AO2 UPB00E08SNE00B19 SLP980 6//// T10111033 400501011 53025 FZRANO PNO $
PADU 110849Z AUTO 22011G15KT 9SM -SN SCT012 BKN043 OVC050 M01/M03 A2945 RMK AO2 UPB00E08SNE00B19 FZRANO PNO $
PADU 110841Z AUTO 25010G16KT 3SM -SN BR SCT012 BKN022 OVC047 M01/M03 A2945 RMK AO2 UPB00E08SNE00B19 FZRANO PNO $
PADU 110839Z AUTO 24013KT 2SM -SN BR BKN012 BKN022 OVC047 M01/M03 A2945 RMK AO2 UPB00E08SNE00B19 FZRANO PNO $
PADU 110831Z AUTO 26015G22KT 1 3/4SM -SN BR SCT012 BKN020 BKN031 M01/M03 A2945 RMK AO2 VIS 1V2 1/2 UPB00E08SNE00B19 FZRANO PNO $
PADU 110756Z AUTO 27013KT 9SM -SN FEW029 BKN040 OVC085 M01/M02 A2942 RMK AO2 UPB31E46SNE31B46 SLP968 T10111022 FZRANO PNO $
PADU 110731Z AUTO 30013G18KT 9SM UP FEW011 BKN034 OVC080 M01/M02 A2940 RMK AO2 UPB31SNE31 FZRANO PNO $
PADU 110712Z AUTO 30014KT 4SM -SN BR FEW007 BKN027 OVC048 M01/M02 A2941 RMK AO2 FZRANO PNO $
PADU 110703Z AUTO 29018G25KT 1 3/4SM -SN BR FEW009 BKN019 OVC032 M01/M02 A2940 RMK AO2 PRESRR FZRANO PNO $
PADU 110656Z AUTO 25008KT 6SM -SN BR FEW008 BKN026 OVC032 M01/M02 A2939 RMK AO2 PK WND 32026/0625 SLP957 T10111022 FZRANO PNO $
PADU 110652Z AUTO 28006KT 4SM -SN BR FEW006 BKN019 OVC032 M01/M02 A2938 RMK AO2 PK WND 32026/0625 FZRANO PNO $
PADU 110640Z AUTO 29010G18KT 3SM -SN BR SCT006 BKN014 OVC021 M01/M02 A2938 RMK AO2 PK WND 32026/0625 FZRANO PNO $
PADU 110637Z AUTO 28013G19KT 2SM -SN BR BKN006 BKN012 OVC019 M01/M02 A2938 RMK AO2 PK WND 32026/0625 CIG 004V008 FZRANO PNO $
PADU 110632Z AUTO 31016G26KT 1SM -SN BR BKN006 OVC013 M01/M02 A2938 RMK AO2 PK WND 32026/0625 CIG 004V008 FZRANO PNO $
PADU 110606Z AUTO 29007KT 3/4SM -SN BR OVC004 M01/M02 A2936 RMK AO2 CIG 003V007 FZRANO PNO $
PADU 110556Z AUTO 31011KT 1/2SM SN FZFG OVC004 M01/M02 A2935 RMK AO2 PK WND 32026/0545 WSHFT 0509 CIG 003V006 SLP943 6//// T10111017 10028 21011 53033 FZRANO PNO $
PADU 110547Z AUTO 32016G26KT 1/4SM +SN FZFG OVC004 M01/M02 A2934 RMK AO2 PK WND 32026/0545 WSHFT 0509 FZRANO PNO $
PADU 110523Z AUTO 30014G18KT 1/2SM SN FZFG OVC004 M01/M01 A2932 RMK AO2 WSHFT 0509 CIG 003V006 FZRANO PNO $
PADU 110515Z AUTO 27010KT 3/4SM -SN BR OVC004 M01/M02 A2931 RMK AO2 PRESRR FZRANO PNO $
PADU 110456Z 33007KT 1/2SM SN FZFG OVC004 M01/M02 A2929 RMK AO2 SLP922 T10061017 PNO $
PADU 110452Z 33009G16KT 1/2SM SN OVC006 00/M01 A2928 RMK AO2 PNO $
PADU 110441Z 32006KT 1SM -SN OVC006 00/M01 A2927 RMK AO2 PNO $
PADU 110434Z VRB05KT 1 1/4SM -SN OVC006 00/M01 A2927 RMK AO2 PNO $
PADU 110426Z 31005KT 1 1/4SM -SN OVC005 00/M01 A2927 RMK AO2 CIG 003V009 PNO $
PADU 110424Z 31005KT 1SM -SN OVC007 00/M01 A2927 RMK AO2 CIG 003V009 PNO $
PADU 110412Z 36013G18KT 3/4SM -SN OVC005 00/M01 A2926 RMK AO2 CIG 003V009 PNO $
PADU 110405Z 33009KT 1/2SM SN FG OVC007 00/M01 A2926 RMK AO2 CIG 003V009 PNO $
PADU 110356Z 26012G16KT 1SM -SN BR OVC007 00/M01 A2925 RMK AO2 WSHFT 0301 RAE06SNB06 CIG 004V010 SLP910 T00001011 PNO $
PADU 110348Z 28008KT 1SM -SN BR OVC007 00/M01 A2925 RMK AO2 WSHFT 0301 RAE06SNB06 PNO $
PADU 110335Z 24012KT 1 1/2SM -SN BR BKN007 OVC011 00/M01 A2924 RMK AO2 WSHFT 0301 RAE06SNB06 CIG 005V009 PNO $
PADU 110327Z 27013KT 1 1/2SM -SN BR SCT007 BKN010 OVC031 01/M01 A2923 RMK AO2 WSHFT 0301 RAE06SNB06 PNO $
PADU 110320Z 28013KT 2SM -SN BR BKN010 BKN016 OVC031 01/M01 A2923 RMK AO2 WSHFT 0301 RAE06SNB06 CIG 008V014 VIS NE 2 1/2 E 3 W 4 NW 3 PNO $
PADU 110315Z 28011KT 2SM -SN FEW008 SCT013 OVC031 01/M02 A2922 RMK AO2 WSHFT 0301 RAE06SNB06 VIS NE 2 1/2 E 3 W 4 NW 3 PNO $
PADU 110256Z VRB04KT 10SM -RA BKN031 BKN040 OVC049 02/M03 A2920 RMK AO2 WSHFT 0218 RAB50SNE0158 SLP894 6//// T00221028 51033 PNO $
PADU 110238Z 27011KT 10SM SCT018 BKN026 02/M03 A2920 RMK AO2 WSHFT 0218 SNE0158 PNO $